createdAt,value
2019-01-13T00:01:43.717Z,94712.69
2019-01-13T00:04:15.209Z,94710.95
2019-01-13T00:06:46.643Z,94711.79
2019-01-13T00:09:18.027Z,94712.59
2019-01-13T00:11:49.129Z,94717.00
2019-01-13T00:14:20.467Z,94718.91
2019-01-13T00:16:51.975Z,94720.38
2019-01-13T00:19:23.642Z,94722.02
2019-01-13T00:21:54.915Z,94713.98
2019-01-13T00:24:26.322Z,94713.39
2019-01-13T00:26:57.741Z,94715.23
2019-01-13T00:29:29.035Z,94720.50
2019-01-13T00:32:00.138Z,94723.72
2019-01-13T00:34:31.468Z,94719.98
2019-01-13T00:37:02.818Z,94722.34
2019-01-13T00:39:34.214Z,94718.41
2019-01-13T00:42:05.676Z,94713.84
2019-01-13T00:44:36.834Z,94711.09
2019-01-13T00:47:08.192Z,94708.77
2019-01-13T00:49:39.635Z,94713.42
2019-01-13T00:52:11.039Z,94697.88
2019-01-13T00:54:42.111Z,94698.34
2019-01-13T00:57:13.171Z,94702.27
2019-01-13T00:59:44.324Z,94699.19
2019-01-13T01:02:15.626Z,94695.34
2019-01-13T01:04:47.074Z,94696.05
2019-01-13T01:07:18.452Z,94687.84
2019-01-13T01:09:49.755Z,94695.80
2019-01-13T01:12:20.896Z,94685.19
2019-01-13T01:14:52.070Z,94687.75
2019-01-13T01:17:23.349Z,94685.82
2019-01-13T01:19:54.750Z,94686.39
2019-01-13T01:22:25.866Z,94682.24
2019-01-13T01:24:57.012Z,94685.06
2019-01-13T01:27:28.100Z,94679.23
2019-01-13T01:29:59.375Z,94675.03
2019-01-13T01:32:30.405Z,94669.84
2019-01-13T01:35:01.534Z,94669.28
2019-01-13T01:37:32.926Z,94661.97
2019-01-13T01:40:05.524Z,94661.61
2019-01-13T01:42:36.843Z,94654.48
2019-01-13T01:45:10.309Z,94653.20
2019-01-13T01:47:41.478Z,94653.86
2019-01-13T01:50:13.454Z,94651.84
2019-01-13T01:52:45.457Z,94654.20
2019-01-13T01:55:18.663Z,94641.70
2019-01-13T01:57:49.916Z,94646.91
2019-01-13T02:00:23.502Z,94640.03
2019-01-13T02:02:55.045Z,94634.11
2019-01-13T02:05:26.609Z,94633.30
2019-01-13T02:07:57.712Z,94627.36
2019-01-13T02:10:29.070Z,94627.17
2019-01-13T02:13:00.469Z,94618.23
2019-01-13T02:15:32.052Z,94619.52
2019-01-13T02:18:03.681Z,94618.85
2019-01-13T02:20:35.151Z,94614.85
2019-01-13T02:23:06.581Z,94608.98
2019-01-13T02:25:38.105Z,94608.00
2019-01-13T02:28:09.366Z,94606.89
2019-01-13T02:30:48.813Z,94601.59
2019-01-13T02:33:13.931Z,94598.11
2019-01-13T02:35:45.473Z,94597.48
2019-01-13T02:38:16.843Z,94597.78
2019-01-13T02:40:48.338Z,94599.77
2019-01-13T02:43:19.687Z,94596.48
2019-01-13T02:45:50.766Z,94603.23
2019-01-13T02:48:22.233Z,94600.33
2019-01-13T02:50:53.634Z,94600.67
2019-01-13T02:53:24.966Z,94606.07
2019-01-13T02:55:56.388Z,94601.41
2019-01-13T02:58:27.606Z,94602.84
2019-01-13T03:00:59.117Z,94604.86
2019-01-13T03:03:30.409Z,94598.48
2019-01-13T03:06:01.881Z,94600.77
2019-01-13T03:08:33.193Z,94606.91
2019-01-13T03:11:05.695Z,94598.13
2019-01-13T03:13:37.276Z,94606.91
2019-01-13T03:16:08.768Z,94604.61
2019-01-13T03:18:40.905Z,94606.70
2019-01-13T03:21:12.374Z,94605.15
2019-01-13T03:23:43.405Z,94590.98
2019-01-13T03:26:14.584Z,94600.84
2019-01-13T03:28:46.036Z,94597.73
2019-01-13T03:31:17.437Z,94603.39
2019-01-13T03:33:48.864Z,94600.22
2019-01-13T03:36:20.189Z,94606.43
2019-01-13T03:38:51.781Z,94611.00
2019-01-13T03:41:23.201Z,94608.08
2019-01-13T03:43:54.537Z,94605.52
2019-01-13T03:46:25.946Z,94602.42
2019-01-13T03:48:57.558Z,94602.05
2019-01-13T03:51:28.950Z,94607.82
2019-01-13T03:54:00.370Z,94608.34
2019-01-13T03:56:32.743Z,94603.97
2019-01-13T03:59:03.986Z,94610.73
2019-01-13T04:01:35.380Z,94611.35
2019-01-13T04:04:06.931Z,94613.48
2019-01-13T04:06:38.457Z,94616.12
2019-01-13T04:09:10.327Z,94612.55
2019-01-13T04:11:41.878Z,94615.84
2019-01-13T04:14:13.193Z,94605.91
2019-01-13T04:16:44.874Z,94608.23
2019-01-13T04:19:16.159Z,94608.72
2019-01-13T04:21:47.777Z,94612.64
2019-01-13T04:24:18.957Z,94614.66
2019-01-13T04:26:50.478Z,94620.42
2019-01-13T04:29:21.695Z,94616.22
2019-01-13T04:31:53.102Z,94618.66
2019-01-13T04:34:24.386Z,94627.63
2019-01-13T04:36:55.725Z,94619.84
2019-01-13T04:39:26.957Z,94622.41
2019-01-13T04:41:58.420Z,94618.21
2019-01-13T04:44:29.757Z,94618.30
2019-01-13T04:47:01.115Z,94607.63
2019-01-13T04:49:32.467Z,94608.70
2019-01-13T04:52:03.969Z,94606.70
2019-01-13T04:54:35.157Z,94604.87
2019-01-13T04:57:06.417Z,94610.74
2019-01-13T04:59:38.072Z,94606.88
2019-01-13T05:02:09.502Z,94608.34
2019-01-13T05:04:40.812Z,94604.69
2019-01-13T05:07:12.110Z,94597.75
2019-01-13T05:09:43.454Z,94592.26
2019-01-13T05:12:14.815Z,94594.83
2019-01-13T05:14:46.158Z,94597.20
2019-01-13T05:17:17.651Z,94598.58
2019-01-13T05:19:48.854Z,94597.49
2019-01-13T05:22:20.263Z,94598.69
2019-01-13T05:24:51.561Z,94596.03
2019-01-13T05:27:22.940Z,94599.03
2019-01-13T05:29:54.134Z,94598.67
2019-01-13T05:32:25.518Z,94592.84
2019-01-13T05:34:56.840Z,94584.77
2019-01-13T05:37:27.995Z,94583.97
2019-01-13T05:39:59.058Z,94579.84
2019-01-13T05:42:30.238Z,94570.61
2019-01-13T05:45:01.296Z,94572.54
2019-01-13T05:47:32.407Z,94568.11
2019-01-13T05:50:04.004Z,94562.90
2019-01-13T05:52:35.573Z,94564.44
2019-01-13T05:55:07.465Z,94557.72
2019-01-13T05:57:38.856Z,94550.68
2019-01-13T06:00:13.660Z,94559.39
2019-01-13T06:02:45.114Z,94554.41
2019-01-13T06:05:16.495Z,94550.92
2019-01-13T06:07:47.992Z,94554.92
2019-01-13T06:10:20.094Z,94555.58
2019-01-13T06:12:51.307Z,94543.25
2019-01-13T06:15:23.990Z,94551.51
2019-01-13T06:17:55.435Z,94554.89
2019-01-13T06:20:27.017Z,94553.78
2019-01-13T06:22:58.417Z,94552.50
2019-01-13T06:25:29.747Z,94554.53
2019-01-13T06:28:01.122Z,94555.66
2019-01-13T06:30:32.212Z,94555.67
2019-01-13T06:33:03.543Z,94553.88
2019-01-13T06:35:34.722Z,94553.92
2019-01-13T06:38:07.223Z,94548.08
2019-01-13T06:40:38.522Z,94559.77
2019-01-13T06:43:09.722Z,94548.54
2019-01-13T06:45:41.177Z,94548.20
2019-01-13T06:48:12.634Z,94551.20
2019-01-13T06:50:44.090Z,94554.23
2019-01-13T06:53:15.475Z,94557.94
2019-01-13T06:55:46.829Z,94550.00
2019-01-13T06:58:18.237Z,94541.13
2019-01-13T07:00:49.663Z,94542.61
2019-01-13T07:03:21.261Z,94545.63
2019-01-13T07:05:52.630Z,94545.90
2019-01-13T07:08:24.077Z,94540.49
2019-01-13T07:10:55.377Z,94545.54
2019-01-13T07:13:26.754Z,94542.25
2019-01-13T07:15:58.076Z,94535.13
2019-01-13T07:18:29.303Z,94527.74
2019-01-13T07:21:00.729Z,94537.42
2019-01-13T07:23:32.112Z,94534.41
2019-01-13T07:26:03.576Z,94537.33
2019-01-13T07:28:35.040Z,94537.48
2019-01-13T07:31:06.282Z,94537.77
2019-01-13T07:33:37.609Z,94541.06
2019-01-13T07:36:09.111Z,94540.70
2019-01-13T07:38:40.403Z,94538.31
2019-01-13T07:41:11.815Z,94539.39
2019-01-13T07:43:43.453Z,94537.73
2019-01-13T07:46:14.929Z,94549.70
2019-01-13T07:48:46.326Z,94552.55
2019-01-13T07:51:17.664Z,94553.09
2019-01-13T07:53:49.224Z,94559.50
2019-01-13T07:56:20.583Z,94570.99
2019-01-13T07:58:52.289Z,94561.20
2019-01-13T08:01:23.654Z,94563.98
2019-01-13T08:03:55.501Z,94564.34
2019-01-13T08:06:26.992Z,94573.73
2019-01-13T08:08:58.456Z,94578.31
2019-01-13T08:11:29.843Z,94578.31
2019-01-13T08:14:01.339Z,94581.59
2019-01-13T08:16:32.828Z,94580.23
2019-01-13T08:19:04.433Z,94579.05
2019-01-13T08:21:35.777Z,94581.50
2019-01-13T08:24:07.012Z,94574.91
2019-01-13T08:26:38.380Z,94577.13
2019-01-13T08:29:09.814Z,94578.51
2019-01-13T08:31:41.147Z,94579.50
2019-01-13T08:34:12.783Z,94569.98
2019-01-13T08:36:44.173Z,94569.36
2019-01-13T08:39:15.312Z,94574.47
2019-01-13T08:41:46.365Z,94569.71
2019-01-13T08:44:17.631Z,94559.36
2019-01-13T08:46:49.012Z,94560.92
2019-01-13T08:49:20.214Z,94552.48
2019-01-13T08:51:51.743Z,94548.58
2019-01-13T08:54:22.927Z,94546.66
2019-01-13T08:56:54.086Z,94538.85
2019-01-13T08:59:25.709Z,94528.99
2019-01-13T09:01:57.088Z,94525.70
2019-01-13T09:04:28.429Z,94523.59
2019-01-13T09:06:59.827Z,94516.34
2019-01-13T09:09:31.011Z,94515.46
2019-01-13T09:12:02.285Z,94506.08
2019-01-13T09:14:33.553Z,94509.45
2019-01-13T09:17:05.520Z,94502.25
2019-01-13T09:19:37.007Z,94497.16
2019-01-13T09:22:08.243Z,94492.02
2019-01-13T09:24:39.449Z,94484.47
2019-01-13T09:27:10.788Z,94487.66
2019-01-13T09:29:43.278Z,94477.55
2019-01-13T09:32:14.548Z,94470.20
2019-01-13T09:34:45.768Z,94467.08
2019-01-13T09:37:17.103Z,94461.34
2019-01-13T09:39:48.861Z,94452.09
2019-01-13T09:42:20.179Z,94449.67
2019-01-13T09:44:51.832Z,94447.27
2019-01-13T09:47:23.410Z,94446.73
2019-01-13T09:49:54.805Z,94439.19
2019-01-13T09:52:26.136Z,94435.80
2019-01-13T09:54:57.395Z,94433.02
2019-01-13T09:57:28.469Z,94424.45
2019-01-13T09:59:59.561Z,94421.76
2019-01-13T10:02:30.806Z,94411.37
2019-01-13T10:05:02.242Z,94403.08
2019-01-13T10:07:33.604Z,94407.32
2019-01-13T10:10:06.415Z,94398.95
2019-01-13T10:12:37.519Z,94407.78
2019-01-13T10:15:12.035Z,94411.63
2019-01-13T10:17:44.000Z,94408.91
2019-01-13T10:20:16.132Z,94403.69
2019-01-13T10:22:47.523Z,94397.43
2019-01-13T10:25:19.073Z,94401.64
2019-01-13T10:27:50.598Z,94399.83
2019-01-13T10:30:30.449Z,94394.66
2019-01-13T10:33:01.928Z,94390.70
2019-01-13T10:35:33.311Z,94378.31
2019-01-13T10:38:04.658Z,94378.42
2019-01-13T10:40:36.067Z,94376.33
2019-01-13T10:43:07.530Z,94375.99
2019-01-13T10:45:38.802Z,94373.53
2019-01-13T10:48:10.734Z,94368.04
2019-01-13T10:50:42.225Z,94367.00
2019-01-13T10:53:13.834Z,94361.05
2019-01-13T10:55:45.376Z,94354.72
2019-01-13T10:58:16.484Z,94354.16
2019-01-13T11:00:48.098Z,94357.41
2019-01-13T11:03:20.504Z,94350.39
2019-01-13T11:05:51.836Z,94344.91
2019-01-13T11:08:23.255Z,94348.89
2019-01-13T11:10:54.762Z,94348.30
2019-01-13T11:13:26.421Z,94346.99
2019-01-13T11:15:58.799Z,94340.33
2019-01-13T11:18:30.414Z,94340.19
2019-01-13T11:21:01.959Z,94335.08
2019-01-13T11:23:33.391Z,94340.67
2019-01-13T11:26:05.155Z,94344.42
2019-01-13T11:28:36.394Z,94352.38
2019-01-13T11:31:07.750Z,94346.42
2019-01-13T11:33:39.200Z,94343.39
2019-01-13T11:36:10.690Z,94351.55
2019-01-13T11:38:42.051Z,94349.28
2019-01-13T11:41:13.485Z,94347.75
2019-01-13T11:43:44.665Z,94345.02
2019-01-13T11:46:16.021Z,94341.12
2019-01-13T11:48:47.113Z,94351.95
2019-01-13T11:51:18.228Z,94346.96
2019-01-13T11:53:49.647Z,94341.02
2019-01-13T11:56:20.880Z,94347.78
2019-01-13T11:58:52.595Z,94345.09
2019-01-13T12:01:23.897Z,94346.02
2019-01-13T12:03:55.300Z,94343.44
2019-01-13T12:06:26.943Z,94345.79
2019-01-13T12:08:58.503Z,94348.69
2019-01-13T12:11:29.925Z,94347.86
2019-01-13T12:14:01.283Z,94350.64
2019-01-13T12:16:32.708Z,94345.16
2019-01-13T12:19:04.019Z,94344.93
2019-01-13T12:21:35.478Z,94339.33
2019-01-13T12:24:06.905Z,94334.99
2019-01-13T12:26:38.394Z,94333.47
2019-01-13T12:29:09.596Z,94336.40
2019-01-13T12:31:40.773Z,94331.34
2019-01-13T12:34:12.031Z,94328.11
2019-01-13T12:36:43.406Z,94332.53
2019-01-13T12:39:15.151Z,94329.41
2019-01-13T12:41:46.700Z,94322.20
2019-01-13T12:44:17.828Z,94317.98
2019-01-13T12:46:49.314Z,94315.77
2019-01-13T12:49:20.777Z,94311.44
2019-01-13T12:51:52.031Z,94304.42
2019-01-13T12:54:23.360Z,94302.94
2019-01-13T12:56:54.522Z,94302.14
2019-01-13T12:59:25.749Z,94300.14
2019-01-13T13:01:57.217Z,94302.48
2019-01-13T13:04:28.649Z,94300.17
2019-01-13T13:07:00.262Z,94290.25
2019-01-13T13:09:31.675Z,94293.03
2019-01-13T13:12:03.328Z,94297.13
2019-01-13T13:14:34.551Z,94292.34
2019-01-13T13:17:06.038Z,94292.69
2019-01-13T13:19:37.374Z,94289.44
2019-01-13T13:22:08.744Z,94290.47
2019-01-13T13:24:39.810Z,94274.37
2019-01-13T13:27:11.262Z,94270.16
2019-01-13T13:29:42.543Z,94276.81
2019-01-13T13:32:14.017Z,94270.86
2019-01-13T13:34:45.624Z,94270.86
2019-01-13T13:37:17.118Z,94265.50
2019-01-13T13:39:48.510Z,94264.75
2019-01-13T13:42:19.769Z,94264.53
2019-01-13T13:44:51.078Z,94263.62
2019-01-13T13:47:22.328Z,94261.64
2019-01-13T13:49:53.590Z,94250.77
2019-01-13T13:52:25.726Z,94257.88
2019-01-13T13:54:57.056Z,94251.92
2019-01-13T13:57:28.293Z,94257.54
2019-01-13T13:59:59.417Z,94255.44
2019-01-13T14:02:30.661Z,94254.73
2019-01-13T14:05:01.791Z,94256.95
2019-01-13T14:07:32.975Z,94258.59
2019-01-13T14:10:08.077Z,94260.45
2019-01-13T14:12:39.683Z,94257.67
2019-01-13T14:15:12.715Z,94256.95
2019-01-13T14:17:44.170Z,94239.44
2019-01-13T14:20:17.596Z,94253.56
2019-01-13T14:22:50.418Z,94251.12
2019-01-13T14:25:21.939Z,94251.59
2019-01-13T14:27:53.480Z,94248.80
2019-01-13T14:30:26.208Z,94253.34
2019-01-13T14:32:57.807Z,94245.64
2019-01-13T14:35:29.128Z,94251.81
2019-01-13T14:38:00.561Z,94242.13
2019-01-13T14:40:31.697Z,94241.19
2019-01-13T14:43:03.158Z,94245.85
2019-01-13T14:45:34.391Z,94241.64
2019-01-13T14:48:06.027Z,94237.57
2019-01-13T14:50:39.758Z,94240.23
2019-01-13T14:53:10.982Z,94236.16
2019-01-13T14:55:42.026Z,94238.50
2019-01-13T14:58:13.229Z,94232.07
2019-01-13T15:00:44.686Z,94223.09
2019-01-13T15:03:16.198Z,94228.22
2019-01-13T15:05:47.479Z,94233.83
2019-01-13T15:08:18.681Z,94228.23
2019-01-13T15:10:49.797Z,94228.60
2019-01-13T15:13:20.968Z,94238.41
2019-01-13T15:15:52.416Z,94232.92
2019-01-13T15:18:23.889Z,94232.08
2019-01-13T15:20:55.391Z,94232.45
2019-01-13T15:23:26.631Z,94234.30
2019-01-13T15:25:58.029Z,94230.34
2019-01-13T15:28:29.625Z,94230.89
2019-01-13T15:31:01.109Z,94225.06
2019-01-13T15:33:32.261Z,94229.52
2019-01-13T15:36:03.390Z,94225.52
2019-01-13T15:38:34.473Z,94220.03
2019-01-13T15:41:05.588Z,94225.74
2019-01-13T15:43:36.800Z,94223.77
2019-01-13T15:46:07.864Z,94231.81
2019-01-13T15:48:38.994Z,94227.00
2019-01-13T15:51:10.161Z,94226.09
2019-01-13T15:53:41.294Z,94225.63
2019-01-13T15:56:12.544Z,94230.75
2019-01-13T15:58:43.825Z,94226.64
2019-01-13T16:01:15.172Z,94222.23
2019-01-13T16:03:46.498Z,94219.04
2019-01-13T16:06:17.649Z,94228.69
2019-01-13T16:08:48.805Z,94223.79
2019-01-13T16:11:20.033Z,94218.91
2019-01-13T16:13:51.191Z,94217.16
2019-01-13T16:16:22.334Z,94216.11
2019-01-13T16:18:53.765Z,94216.09
2019-01-13T16:21:27.859Z,94208.41
2019-01-13T16:24:04.248Z,94216.47
2019-01-13T16:26:36.316Z,94214.95
2019-01-13T16:29:07.610Z,94220.67
2019-01-13T16:31:39.031Z,94223.75
2019-01-13T16:34:10.312Z,94222.59
2019-01-13T16:36:41.704Z,94218.41
2019-01-13T16:39:13.020Z,94223.09
2019-01-13T16:41:44.376Z,94214.10
2019-01-13T16:44:15.827Z,94215.86
2019-01-13T16:46:46.902Z,94207.22
2019-01-13T16:49:18.364Z,94210.13
2019-01-13T16:51:49.795Z,94212.67
2019-01-13T16:54:21.259Z,94205.06
2019-01-13T16:56:52.824Z,94203.41
2019-01-13T16:59:24.005Z,94205.14
2019-01-13T17:01:55.088Z,94199.98
2019-01-13T17:04:28.946Z,94195.45
2019-01-13T17:06:59.542Z,94193.02
2019-01-13T17:09:30.921Z,94190.34
2019-01-13T17:12:02.222Z,94193.39
2019-01-13T17:14:33.639Z,94189.08
2019-01-13T17:17:04.991Z,94198.98
2019-01-13T17:19:36.283Z,94199.69
2019-01-13T17:22:07.732Z,94194.89
2019-01-13T17:24:38.937Z,94195.27
2019-01-13T17:27:10.416Z,94196.98
2019-01-13T17:29:41.869Z,94191.27
2019-01-13T17:32:14.178Z,94193.25
2019-01-13T17:34:45.653Z,94180.88
2019-01-13T17:37:16.830Z,94186.28
2019-01-13T17:39:47.981Z,94188.33
2019-01-13T17:42:19.309Z,94180.66
2019-01-13T17:44:50.459Z,94187.63
2019-01-13T17:47:21.524Z,94187.13
2019-01-13T17:49:53.759Z,94181.09
2019-01-13T17:52:25.272Z,94179.36
2019-01-13T17:54:56.557Z,94182.12
2019-01-13T17:57:27.912Z,94180.49
2019-01-13T17:59:59.136Z,94177.71
2019-01-13T18:02:30.346Z,94177.36
2019-01-13T18:05:01.508Z,94179.02
2019-01-13T18:07:32.627Z,94184.69
2019-01-13T18:10:04.345Z,94178.28
2019-01-13T18:12:35.393Z,94181.80
2019-01-13T18:15:07.109Z,94174.37
2019-01-13T18:17:38.479Z,94176.61
2019-01-13T18:20:13.601Z,94170.20
2019-01-13T18:22:45.799Z,94166.94
2019-01-13T18:25:17.159Z,94172.74
2019-01-13T18:27:48.554Z,94165.02
2019-01-13T18:30:22.274Z,94165.25
2019-01-13T18:32:53.621Z,94161.49
2019-01-13T18:35:25.029Z,94165.10
2019-01-13T18:37:56.364Z,94163.70
2019-01-13T18:40:28.018Z,94165.09
2019-01-13T18:42:59.411Z,94155.87
2019-01-13T18:46:33.299Z,94160.63
2019-01-13T18:50:18.762Z,94159.94
2019-01-13T18:54:04.368Z,94163.34
2019-01-13T18:56:44.814Z,94166.75
2019-01-13T19:00:04.305Z,94163.37
2019-01-13T19:02:39.576Z,94165.75
2019-01-13T19:05:55.583Z,94159.42
2019-01-13T19:09:31.686Z,94151.50
2019-01-13T19:13:13.188Z,94152.33
2019-01-13T19:17:09.141Z,94147.17
2019-01-13T19:20:17.779Z,94135.95
2019-01-13T19:23:54.732Z,94141.06
2019-01-13T19:27:05.134Z,94144.31
2019-01-13T19:30:44.537Z,94136.81
2019-01-13T19:33:17.462Z,94138.88
2019-01-13T19:36:46.716Z,94135.99
2019-01-13T19:39:29.022Z,94125.88
2019-01-13T19:42:07.657Z,94124.28
2019-01-13T19:44:39.414Z,94115.33
2019-01-13T19:47:10.771Z,94120.17
2019-01-13T19:49:42.170Z,94116.45
2019-01-13T19:52:13.405Z,94112.02
2019-01-13T19:54:44.525Z,94102.91
2019-01-13T19:57:16.889Z,94103.86
2019-01-13T19:59:48.265Z,94105.48
2019-01-13T20:02:20.710Z,94100.01
2019-01-13T20:04:51.890Z,94101.41
2019-01-13T20:07:23.151Z,94090.21
2019-01-13T20:09:54.410Z,94096.03
2019-01-13T20:12:25.888Z,94101.50
2019-01-13T20:14:57.021Z,94096.84
2019-01-13T20:17:28.109Z,94092.52
2019-01-13T20:20:02.666Z,94080.41
2019-01-13T20:22:43.235Z,94080.27
2019-01-13T20:25:40.459Z,94069.88
2019-01-13T20:28:21.836Z,94072.09
2019-01-13T20:31:20.900Z,94068.45
2019-01-13T20:33:53.887Z,94068.45
2019-01-13T20:36:25.579Z,94066.95
2019-01-13T20:38:57.124Z,94070.89
2019-01-13T20:41:28.548Z,94063.66
2019-01-13T20:44:00.057Z,94061.98
2019-01-13T20:46:31.364Z,94057.57
2019-01-13T20:49:02.786Z,94060.46
2019-01-13T20:51:33.858Z,94054.20
2019-01-13T20:54:07.985Z,94059.32
2019-01-13T20:56:38.196Z,94054.08
2019-01-13T20:59:09.506Z,94051.52
2019-01-13T21:01:40.813Z,94046.27
2019-01-13T21:04:12.291Z,94040.28
2019-01-13T21:06:43.595Z,94045.27
2019-01-13T21:09:14.999Z,94045.12
2019-01-13T21:11:46.617Z,94038.27
2019-01-13T21:14:18.134Z,94042.22
2019-01-13T21:16:49.595Z,94033.84
2019-01-13T21:19:20.983Z,94027.19
2019-01-13T21:21:52.229Z,94034.27
2019-01-13T21:24:23.549Z,94029.22
2019-01-13T21:26:54.648Z,94019.83
2019-01-13T21:29:26.126Z,94012.70
2019-01-13T21:31:57.216Z,94017.24
2019-01-13T21:34:29.392Z,94012.70
2019-01-13T21:37:00.715Z,94014.33
2019-01-13T21:39:31.904Z,94005.33
2019-01-13T21:42:03.141Z,93991.81
2019-01-13T21:44:34.255Z,93992.97
2019-01-13T21:47:05.667Z,93987.64
2019-01-13T21:49:37.372Z,93970.66
2019-01-13T21:52:08.603Z,93971.84
2019-01-13T21:54:40.170Z,93973.14
2019-01-13T21:57:11.235Z,93973.75
2019-01-13T21:59:42.498Z,93956.33
2019-01-13T22:02:13.850Z,93957.95
2019-01-13T22:04:46.199Z,93958.77
2019-01-13T22:07:17.312Z,93944.26
2019-01-13T22:09:48.331Z,93942.52
2019-01-13T22:12:19.548Z,93948.45
2019-01-13T22:14:50.672Z,93932.66
2019-01-13T22:17:21.984Z,93944.29
2019-01-13T22:19:53.358Z,93932.77
2019-01-13T22:22:24.335Z,93928.36
2019-01-13T22:24:55.528Z,93920.89
2019-01-13T22:27:24.585Z,93916.92
2019-01-13T22:29:53.671Z,93920.59
2019-01-13T22:32:22.776Z,93916.47
2019-01-13T22:34:51.841Z,93905.66
2019-01-13T22:37:20.973Z,93909.06
2019-01-13T22:39:50.160Z,93901.55
2019-01-13T22:42:21.134Z,93900.51
2019-01-13T22:44:52.758Z,93891.17
2019-01-13T22:47:24.017Z,93885.27
2019-01-13T22:49:55.180Z,93885.51
2019-01-13T22:52:26.252Z,93879.09
2019-01-13T22:54:57.325Z,93871.61
2019-01-13T22:57:28.587Z,93877.98
2019-01-13T22:59:59.920Z,93882.74
2019-01-13T23:02:31.224Z,93881.33
2019-01-13T23:05:02.395Z,93877.75
2019-01-13T23:07:33.961Z,93869.27
2019-01-13T23:10:05.608Z,93873.33
2019-01-13T23:12:36.682Z,93859.02
2019-01-13T23:15:07.975Z,93854.83
2019-01-13T23:17:39.003Z,93852.39
2019-01-13T23:20:11.379Z,93852.83
2019-01-13T23:22:42.430Z,93861.63
2019-01-13T23:25:13.499Z,93845.62
2019-01-13T23:27:44.889Z,93843.52
2019-01-13T23:30:16.266Z,93835.56
2019-01-13T23:32:47.712Z,93833.03
2019-01-13T23:35:19.169Z,93835.27
2019-01-13T23:37:50.518Z,93833.03
2019-01-13T23:40:21.663Z,93833.50
2019-01-13T23:42:52.773Z,93839.45
2019-01-13T23:45:24.138Z,93834.03
2019-01-13T23:47:55.495Z,93833.00
2019-01-13T23:50:27.057Z,93827.41
2019-01-13T23:52:58.437Z,93839.72
2019-01-13T23:55:29.671Z,93836.29
2019-01-13T23:58:00.970Z,93840.44
